createdAt,value
2018-10-19T00:00:00.438Z,14.77
2018-10-19T00:00:31.538Z,14.75
2018-10-19T00:01:02.646Z,14.71
2018-10-19T00:01:33.745Z,14.65
2018-10-19T00:02:04.850Z,14.61
2018-10-19T00:02:36.295Z,14.58
2018-10-19T00:03:08.109Z,14.57
2018-10-19T00:03:39.200Z,14.55
2018-10-19T00:04:15.680Z,14.55
2018-10-19T00:04:48.383Z,14.55
2018-10-19T00:05:19.535Z,14.57
2018-10-19T00:05:50.641Z,14.55
2018-10-19T00:06:21.746Z,14.55
2018-10-19T00:06:52.855Z,14.52
2018-10-19T00:07:23.964Z,14.55
2018-10-19T00:07:55.072Z,14.54
2018-10-19T00:08:26.183Z,14.52
2018-10-19T00:08:57.332Z,14.53
2018-10-19T00:09:28.419Z,14.53
2018-10-19T00:10:04.887Z,14.55
2018-10-19T00:10:36.882Z,14.57
2018-10-19T00:11:08.064Z,14.56
2018-10-19T00:11:39.150Z,14.60
2018-10-19T00:12:10.243Z,14.62
2018-10-19T00:12:41.380Z,14.60
2018-10-19T00:13:12.478Z,14.62
2018-10-19T00:13:43.574Z,14.62
2018-10-19T00:14:14.683Z,14.64
2018-10-19T00:14:45.812Z,14.65
2018-10-19T00:15:20.945Z,14.65
2018-10-19T00:15:52.925Z,14.66
2018-10-19T00:16:24.027Z,14.67
2018-10-19T00:16:55.153Z,14.67
2018-10-19T00:17:26.570Z,14.66
2018-10-19T00:18:00.074Z,14.64
2018-10-19T00:18:31.197Z,14.64
2018-10-19T00:19:02.313Z,14.64
2018-10-19T00:19:33.421Z,14.66
2018-10-19T00:20:04.527Z,14.66
2018-10-19T00:20:35.669Z,14.65
2018-10-19T00:21:06.847Z,14.65
2018-10-19T00:21:40.770Z,14.64
2018-10-19T00:22:14.011Z,14.65
2018-10-19T00:22:45.118Z,14.66
2018-10-19T00:23:17.419Z,14.69
2018-10-19T00:23:49.499Z,14.73
2018-10-19T00:24:22.358Z,14.73
2018-10-19T00:24:53.458Z,14.72
2018-10-19T00:26:00.186Z,14.72
2018-10-19T00:26:33.805Z,14.72
2018-10-19T00:27:04.968Z,14.69
2018-10-19T00:27:36.054Z,14.66
2018-10-19T00:28:07.158Z,14.66
2018-10-19T00:28:38.314Z,14.64
2018-10-19T00:29:11.422Z,14.62
2018-10-19T00:29:42.502Z,14.59
2018-10-19T00:30:13.613Z,14.56
2018-10-19T00:30:44.721Z,14.49
2018-10-19T00:31:15.845Z,14.40
2018-10-19T00:31:46.955Z,14.40
2018-10-19T00:32:18.050Z,14.37
2018-10-19T00:32:49.150Z,14.32
2018-10-19T00:33:21.467Z,14.29
2018-10-19T00:33:55.124Z,14.27
2018-10-19T00:34:28.386Z,14.24
2018-10-19T00:34:59.553Z,14.22
2018-10-19T00:35:30.669Z,14.19
2018-10-19T00:36:01.792Z,14.17
2018-10-19T00:36:32.928Z,14.14
2018-10-19T00:37:04.941Z,14.12
2018-10-19T00:37:36.074Z,14.12
2018-10-19T00:38:07.182Z,14.11
2018-10-19T00:38:38.287Z,14.08
2018-10-19T00:39:09.477Z,14.07
2018-10-19T00:39:44.688Z,14.05
2018-10-19T00:40:22.619Z,14.08
2018-10-19T00:40:53.725Z,14.09
2018-10-19T00:41:24.854Z,14.10
2018-10-19T00:41:55.957Z,14.13
2018-10-19T00:42:28.018Z,14.14
2018-10-19T00:42:59.162Z,14.15
2018-10-19T00:43:30.270Z,14.16
2018-10-19T00:44:01.373Z,14.16
2018-10-19T00:44:32.483Z,14.15
2018-10-19T00:45:03.652Z,14.19
2018-10-19T00:45:34.748Z,14.23
2018-10-19T00:46:05.854Z,14.24
2018-10-19T00:46:36.998Z,14.24
2018-10-19T00:47:08.164Z,14.24
2018-10-19T00:47:39.235Z,14.22
2018-10-19T00:48:11.228Z,14.22
2018-10-19T00:48:42.361Z,14.24
2018-10-19T00:49:13.465Z,14.24
2018-10-19T00:49:49.066Z,14.22
2018-10-19T00:50:21.115Z,14.22
2018-10-19T00:50:54.192Z,14.20
2018-10-19T00:51:25.310Z,14.19
2018-10-19T00:51:56.410Z,14.19
2018-10-19T00:52:27.545Z,14.19
2018-10-19T00:53:37.770Z,14.20
2018-10-19T00:54:08.889Z,14.19
2018-10-19T00:54:40.010Z,14.20
2018-10-19T00:55:11.494Z,14.17
2018-10-19T00:55:43.814Z,14.14
2018-10-19T00:56:14.909Z,14.11
2018-10-19T00:56:46.050Z,14.13
2018-10-19T00:57:17.241Z,14.11
2018-10-19T00:57:49.207Z,14.13
2018-10-19T00:58:20.319Z,14.11
2018-10-19T00:58:55.424Z,14.10
2018-10-19T00:59:26.502Z,14.08
2018-10-19T00:59:57.602Z,14.07
2018-10-19T01:00:28.730Z,14.03
2018-10-19T01:00:59.833Z,13.99
2018-10-19T01:02:11.631Z,13.96
2018-10-19T01:02:54.815Z,13.96
2018-10-19T01:03:26.818Z,13.95
2018-10-19T01:04:00.238Z,13.93
2018-10-19T01:04:31.367Z,13.91
2018-10-19T01:05:05.498Z,13.90
2018-10-19T01:05:37.522Z,13.88
2018-10-19T01:06:08.622Z,13.86
2018-10-19T01:06:39.753Z,13.86
2018-10-19T01:07:10.893Z,13.85
2018-10-19T01:07:42.045Z,13.80
2018-10-19T01:08:13.158Z,13.78
2018-10-19T01:08:44.291Z,13.77
2018-10-19T01:09:19.854Z,13.75
2018-10-19T01:09:51.858Z,13.74
2018-10-19T01:10:23.849Z,13.72
2018-10-19T01:10:55.031Z,13.68
2018-10-19T01:11:26.082Z,13.69
2018-10-19T01:11:59.795Z,13.67
2018-10-19T01:12:30.902Z,13.68
2018-10-19T01:13:02.914Z,13.68
2018-10-19T01:13:34.782Z,13.69
2018-10-19T01:14:05.897Z,13.69
2018-10-19T01:14:37.001Z,13.68
2018-10-19T01:15:08.151Z,13.69
2018-10-19T01:15:39.238Z,13.69
2018-10-19T01:16:10.367Z,13.69
2018-10-19T01:16:41.473Z,13.69
2018-10-19T01:17:13.608Z,13.72
2018-10-19T01:17:45.521Z,13.73
2018-10-19T01:18:17.060Z,13.72
2018-10-19T01:18:48.165Z,13.72
2018-10-19T01:19:20.131Z,13.72
2018-10-19T01:19:52.138Z,13.71
2018-10-19T01:20:23.251Z,13.71
2018-10-19T01:20:55.287Z,13.69
2018-10-19T01:21:26.367Z,13.69
2018-10-19T01:21:57.474Z,13.67
2018-10-19T01:22:28.568Z,13.65
2018-10-19T01:22:59.691Z,13.62
2018-10-19T01:23:30.833Z,13.61
2018-10-19T01:24:01.940Z,13.59
2018-10-19T01:24:33.050Z,13.55
2018-10-19T01:25:04.210Z,13.53
2018-10-19T01:25:35.347Z,13.50
2018-10-19T01:26:06.445Z,13.48
2018-10-19T01:26:37.736Z,13.46
2018-10-19T01:27:09.601Z,13.47
2018-10-19T01:27:40.676Z,13.45
2018-10-19T01:28:11.810Z,13.40
2018-10-19T01:28:42.910Z,13.40
2018-10-19T01:29:14.925Z,13.35
2018-10-19T01:29:45.978Z,13.35
2018-10-19T01:30:17.082Z,13.32
2018-10-19T01:30:48.184Z,13.31
2018-10-19T01:31:19.305Z,13.32
2018-10-19T01:31:50.430Z,13.31
2018-10-19T01:32:21.530Z,13.29
2018-10-19T01:32:52.656Z,13.26
2018-10-19T01:33:23.805Z,13.26
2018-10-19T01:33:54.916Z,13.25
2018-10-19T01:34:26.959Z,13.23
2018-10-19T01:34:58.125Z,13.24
2018-10-19T01:35:29.191Z,13.24
2018-10-19T01:36:00.281Z,13.21
2018-10-19T01:36:31.401Z,13.17
2018-10-19T01:37:03.405Z,13.15
2018-10-19T01:37:34.498Z,13.12
2018-10-19T01:38:05.610Z,13.11
2018-10-19T01:38:36.719Z,13.07
2018-10-19T01:39:07.890Z,13.05
2018-10-19T01:39:38.950Z,13.05
2018-10-19T01:40:10.046Z,13.03
2018-10-19T01:40:41.203Z,13.00
2018-10-19T01:41:12.333Z,12.97
2018-10-19T01:41:43.448Z,12.93
2018-10-19T01:42:14.563Z,12.87
2018-10-19T01:42:45.671Z,12.85
2018-10-19T01:43:17.173Z,12.84
2018-10-19T01:43:48.289Z,12.83
2018-10-19T01:44:19.388Z,12.82
2018-10-19T01:44:50.502Z,12.79
2018-10-19T01:45:21.604Z,12.78
2018-10-19T01:45:52.792Z,12.75
2018-10-19T01:46:23.906Z,12.74
2018-10-19T01:46:55.067Z,12.74
2018-10-19T01:47:26.150Z,12.75
2018-10-19T01:47:57.256Z,12.73
2018-10-19T01:48:28.364Z,12.73
2018-10-19T01:48:59.464Z,12.72
2018-10-19T01:49:30.594Z,12.75
2018-10-19T01:50:01.739Z,12.77
2018-10-19T01:50:32.842Z,12.81
2018-10-19T01:51:03.995Z,12.81
2018-10-19T01:51:35.125Z,12.79
2018-10-19T01:52:06.253Z,12.78
2018-10-19T01:52:37.372Z,12.76
2018-10-19T01:53:08.533Z,12.73
2018-10-19T01:53:39.609Z,12.72
2018-10-19T01:54:10.709Z,12.70
2018-10-19T01:54:41.810Z,12.70
2018-10-19T01:55:12.961Z,12.67
2018-10-19T01:55:44.081Z,12.68
2018-10-19T01:56:15.194Z,12.69
2018-10-19T01:56:46.299Z,12.67
2018-10-19T01:57:17.511Z,12.65
2018-10-19T01:57:48.571Z,12.65
2018-10-19T01:58:19.673Z,12.66
2018-10-19T01:58:50.779Z,12.65
2018-10-19T01:59:21.894Z,12.63
2018-10-19T01:59:53.802Z,12.61
2018-10-19T02:00:24.949Z,12.60
2018-10-19T02:00:56.065Z,12.61
2018-10-19T02:01:27.162Z,12.60
2018-10-19T02:01:58.275Z,12.58
2018-10-19T02:02:29.371Z,12.57
2018-10-19T02:03:00.536Z,12.56
2018-10-19T02:03:31.602Z,12.54
2018-10-19T02:04:02.709Z,12.54
2018-10-19T02:04:33.819Z,12.54
2018-10-19T02:05:05.270Z,12.56
2018-10-19T02:05:37.238Z,12.57
2018-10-19T02:06:08.346Z,12.57
2018-10-19T02:06:39.457Z,12.59
2018-10-19T02:07:10.587Z,12.60
2018-10-19T02:07:41.704Z,12.60
2018-10-19T02:08:15.223Z,12.61
2018-10-19T02:08:46.332Z,12.65
2018-10-19T02:09:17.439Z,12.68
2018-10-19T02:09:48.555Z,12.69
2018-10-19T02:10:19.653Z,12.71
2018-10-19T02:10:50.751Z,12.74
2018-10-19T02:11:21.849Z,12.75
2018-10-19T02:11:53.011Z,12.77
2018-10-19T02:12:25.432Z,12.78
2018-10-19T02:12:56.556Z,12.78
2018-10-19T02:13:32.379Z,12.75
2018-10-19T02:14:03.483Z,12.74
2018-10-19T02:14:34.578Z,12.73
2018-10-19T02:15:05.721Z,12.72
2018-10-19T02:15:37.719Z,12.70
2018-10-19T02:16:08.861Z,12.68
2018-10-19T02:16:39.965Z,12.68
2018-10-19T02:17:11.197Z,12.68
2018-10-19T02:17:42.279Z,12.65
2018-10-19T02:18:13.381Z,12.66
2018-10-19T02:18:44.486Z,12.63
2018-10-19T02:19:17.316Z,12.64
2018-10-19T02:19:48.422Z,12.67
2018-10-19T02:20:19.521Z,12.70
2018-10-19T02:20:50.623Z,12.72
2018-10-19T02:21:21.731Z,12.74
2018-10-19T02:21:52.842Z,12.78
2018-10-19T02:22:23.987Z,12.80
2018-10-19T02:22:55.121Z,12.82
2018-10-19T02:23:26.238Z,12.85
2018-10-19T02:23:57.348Z,12.85
2018-10-19T02:24:28.451Z,12.84
2018-10-19T02:24:59.571Z,12.81
2018-10-19T02:25:31.483Z,12.78
2018-10-19T02:26:02.597Z,12.75
2018-10-19T02:26:35.266Z,12.72
2018-10-19T02:27:06.403Z,12.72
2018-10-19T02:27:37.565Z,12.69
2018-10-19T02:28:08.690Z,12.62
2018-10-19T02:28:39.811Z,12.60
2018-10-19T02:29:10.932Z,12.58
2018-10-19T02:29:42.037Z,12.58
2018-10-19T02:30:13.141Z,12.56
2018-10-19T02:30:44.250Z,12.54
2018-10-19T02:31:15.343Z,12.54
2018-10-19T02:31:46.434Z,12.52
2018-10-19T02:32:17.541Z,12.53
2018-10-19T02:32:48.669Z,12.53
2018-10-19T02:33:19.862Z,12.53
2018-10-19T02:33:50.930Z,12.52
2018-10-19T02:34:22.034Z,12.53
2018-10-19T02:34:53.162Z,12.52
2018-10-19T02:35:24.281Z,12.54
2018-10-19T02:35:55.386Z,12.53
2018-10-19T02:36:26.503Z,12.52
2018-10-19T02:36:57.598Z,12.53
2018-10-19T02:37:28.737Z,12.52
2018-10-19T02:37:59.840Z,12.53
2018-10-19T02:38:30.974Z,12.55
2018-10-19T02:39:02.099Z,12.56
2018-10-19T02:39:33.219Z,12.55
2018-10-19T02:40:04.320Z,12.55
2018-10-19T02:40:35.424Z,12.56
2018-10-19T02:41:06.557Z,12.54
2018-10-19T02:41:37.665Z,12.52
2018-10-19T02:42:10.314Z,12.53
2018-10-19T02:42:41.418Z,12.52
2018-10-19T02:43:12.527Z,12.52
2018-10-19T02:43:43.675Z,12.51
2018-10-19T02:44:14.779Z,12.50
2018-10-19T02:44:45.880Z,12.48
2018-10-19T02:45:17.082Z,12.48
2018-10-19T02:45:48.125Z,12.48
2018-10-19T02:46:19.246Z,12.47
2018-10-19T02:46:50.373Z,12.46
2018-10-19T02:47:21.473Z,12.45
2018-10-19T02:47:53.525Z,12.46
2018-10-19T02:48:24.637Z,12.43
2018-10-19T02:48:55.809Z,12.44
2018-10-19T02:49:26.916Z,12.43
2018-10-19T02:49:58.007Z,12.43
2018-10-19T02:50:29.114Z,12.45
2018-10-19T02:51:00.268Z,12.45
2018-10-19T02:51:31.367Z,12.46
2018-10-19T02:52:02.515Z,12.49
2018-10-19T02:52:33.618Z,12.49
2018-10-19T02:53:04.740Z,12.48
2018-10-19T02:53:35.855Z,12.47
2018-10-19T02:54:06.966Z,12.46
2018-10-19T02:54:38.070Z,12.44
2018-10-19T02:55:09.178Z,12.42
2018-10-19T02:55:40.319Z,12.43
2018-10-19T02:56:11.464Z,12.43
2018-10-19T02:56:43.178Z,12.42
2018-10-19T02:57:14.329Z,12.43
2018-10-19T02:57:45.441Z,12.40
2018-10-19T02:58:16.559Z,12.38
2018-10-19T02:58:47.669Z,12.36
2018-10-19T02:59:18.840Z,12.33
2018-10-19T02:59:49.922Z,12.33
2018-10-19T03:00:21.023Z,12.30
2018-10-19T03:00:52.135Z,12.30
2018-10-19T03:01:23.306Z,12.30
2018-10-19T03:01:54.412Z,12.29
2018-10-19T03:02:26.345Z,12.30
2018-10-19T03:02:57.471Z,12.30
2018-10-19T03:03:29.342Z,12.31
2018-10-19T03:04:00.443Z,12.33
2018-10-19T03:04:31.558Z,12.34
2018-10-19T03:05:02.705Z,12.37
2018-10-19T03:05:34.400Z,12.41
2018-10-19T03:06:05.506Z,12.42
2018-10-19T03:06:36.642Z,12.43
2018-10-19T03:07:07.753Z,12.46
2018-10-19T03:07:39.745Z,12.49
2018-10-19T03:08:10.860Z,12.48
2018-10-19T03:08:41.980Z,12.48
2018-10-19T03:09:13.117Z,12.47
2018-10-19T03:09:44.211Z,12.46
2018-10-19T03:10:15.361Z,12.43
2018-10-19T03:10:46.465Z,12.42
2018-10-19T03:11:17.595Z,12.40
2018-10-19T03:11:48.695Z,12.40
2018-10-19T03:12:21.230Z,12.42
2018-10-19T03:12:52.345Z,12.43
2018-10-19T03:13:23.461Z,12.41
2018-10-19T03:13:54.561Z,12.41
2018-10-19T03:14:25.670Z,12.43
2018-10-19T03:14:56.811Z,12.43
2018-10-19T03:15:27.954Z,12.43
2018-10-19T03:15:59.063Z,12.42
2018-10-19T03:16:30.586Z,12.43
2018-10-19T03:17:01.751Z,12.45
2018-10-19T03:17:32.831Z,12.46
2018-10-19T03:18:03.956Z,12.46
2018-10-19T03:18:35.059Z,12.46
2018-10-19T03:19:10.205Z,12.48
2018-10-19T03:19:41.317Z,12.30
2018-10-19T03:20:12.435Z,12.47
2018-10-19T03:20:44.451Z,12.49
2018-10-19T03:21:17.295Z,12.51
2018-10-19T03:21:49.122Z,12.52
2018-10-19T03:22:20.229Z,12.52
2018-10-19T03:22:51.336Z,12.55
2018-10-19T03:23:22.468Z,12.55
2018-10-19T03:23:53.597Z,12.56
2018-10-19T03:24:24.701Z,12.57
2018-10-19T03:24:58.107Z,12.58
2018-10-19T03:25:29.226Z,12.58
2018-10-19T03:26:00.376Z,12.57
2018-10-19T03:26:31.481Z,12.58
2018-10-19T03:27:02.678Z,12.57
2018-10-19T03:27:33.747Z,12.60
2018-10-19T03:28:04.851Z,12.61
2018-10-19T03:28:35.967Z,12.61
2018-10-19T03:29:07.628Z,12.60
2018-10-19T03:29:38.746Z,12.59
2018-10-19T03:30:09.858Z,12.59
2018-10-19T03:30:42.621Z,12.60
2018-10-19T03:31:13.959Z,12.59
2018-10-19T03:31:44.866Z,12.61
2018-10-19T03:32:15.972Z,12.61
2018-10-19T03:32:47.158Z,12.61
2018-10-19T03:33:18.716Z,12.61
2018-10-19T03:33:51.414Z,12.59
2018-10-19T03:34:22.506Z,12.55
2018-10-19T03:34:53.637Z,12.53
2018-10-19T03:35:24.751Z,12.53
2018-10-19T03:35:57.455Z,12.52
2018-10-19T03:36:28.571Z,12.52
2018-10-19T03:36:59.692Z,12.52
2018-10-19T03:37:30.810Z,12.52
2018-10-19T03:38:04.048Z,12.51
2018-10-19T03:38:35.169Z,12.51
2018-10-19T03:39:06.317Z,12.50
2018-10-19T03:39:37.404Z,12.50
2018-10-19T03:40:08.505Z,12.50
2018-10-19T03:40:39.637Z,12.51
2018-10-19T03:41:11.557Z,12.52
2018-10-19T03:41:42.639Z,12.51
2018-10-19T03:42:13.752Z,12.51
2018-10-19T03:42:44.868Z,12.53
2018-10-19T03:43:15.978Z,12.55
2018-10-19T03:43:48.429Z,12.55
2018-10-19T03:44:19.543Z,12.58
2018-10-19T03:44:50.654Z,12.58
2018-10-19T03:45:21.764Z,12.59
2018-10-19T03:45:53.290Z,12.58
2018-10-19T03:46:24.437Z,12.58
2018-10-19T03:46:55.595Z,12.58
2018-10-19T03:47:26.671Z,12.56
2018-10-19T03:47:57.777Z,12.56
2018-10-19T03:48:28.927Z,12.55
2018-10-19T03:49:00.096Z,12.55
2018-10-19T03:49:31.168Z,12.54
2018-10-19T03:50:02.286Z,12.53
2018-10-19T03:50:34.263Z,12.55
2018-10-19T03:51:05.436Z,12.57
2018-10-19T03:51:36.494Z,12.58
2018-10-19T03:52:07.594Z,12.58
2018-10-19T03:52:38.693Z,12.57
2018-10-19T03:53:09.836Z,12.55
2018-10-19T03:53:40.975Z,12.55
2018-10-19T03:54:12.099Z,12.54
2018-10-19T03:54:44.162Z,12.54
2018-10-19T03:55:15.264Z,12.52
2018-10-19T03:55:46.380Z,12.52
2018-10-19T03:56:17.482Z,12.50
2018-10-19T03:56:48.599Z,12.48
2018-10-19T03:57:19.707Z,12.50
2018-10-19T03:57:50.810Z,12.50
2018-10-19T03:58:21.921Z,12.51
2018-10-19T03:58:53.079Z,12.52
2018-10-19T03:59:25.124Z,12.53
2018-10-19T03:59:56.251Z,12.51
2018-10-19T04:00:27.355Z,12.51
2018-10-19T04:00:58.454Z,12.52
2018-10-19T04:01:29.549Z,12.54
2018-10-19T04:02:01.884Z,12.55
2018-10-19T04:02:33.002Z,12.53
2018-10-19T04:03:04.166Z,12.53
2018-10-19T04:03:35.268Z,12.50
2018-10-19T04:04:07.280Z,12.51
2018-10-19T04:04:38.386Z,12.50
2018-10-19T04:05:09.506Z,12.52
2018-10-19T04:05:41.431Z,12.52
2018-10-19T04:06:12.526Z,12.50
2018-10-19T04:06:43.627Z,12.47
2018-10-19T04:07:16.730Z,12.46
2018-10-19T04:07:48.773Z,12.46
2018-10-19T04:08:19.877Z,12.45
2018-10-19T04:08:50.996Z,12.41
2018-10-19T04:09:22.145Z,12.37
2018-10-19T04:09:53.280Z,12.39
2018-10-19T04:10:24.412Z,12.38
2018-10-19T04:10:55.522Z,12.38
2018-10-19T04:11:26.635Z,12.37
2018-10-19T04:11:58.106Z,12.37
2018-10-19T04:12:29.218Z,12.37
2018-10-19T04:13:01.044Z,12.36
2018-10-19T04:13:32.153Z,12.38
2018-10-19T04:14:03.264Z,12.39
2018-10-19T04:14:34.411Z,12.40
2018-10-19T04:15:05.596Z,12.39
2018-10-19T04:15:36.678Z,12.37
2018-10-19T04:16:07.785Z,12.35
2018-10-19T04:16:38.881Z,12.35
2018-10-19T04:17:10.041Z,12.34
2018-10-19T04:17:41.100Z,12.33
2018-10-19T04:18:12.214Z,12.31
2018-10-19T04:18:43.329Z,12.30
2018-10-19T04:19:14.422Z,12.29
2018-10-19T04:19:45.515Z,12.28
2018-10-19T04:20:16.647Z,12.26
2018-10-19T04:20:47.762Z,12.27
2018-10-19T04:21:18.910Z,12.26
2018-10-19T04:21:50.007Z,12.25
2018-10-19T04:22:21.117Z,12.24
2018-10-19T04:22:52.242Z,12.25
2018-10-19T04:23:23.366Z,12.23
2018-10-19T04:23:54.467Z,12.22
2018-10-19T04:24:25.574Z,12.21
2018-10-19T04:24:56.686Z,12.22
2018-10-19T04:25:27.834Z,12.21
2018-10-19T04:25:58.943Z,12.22
2018-10-19T04:26:30.064Z,12.23
2018-10-19T04:27:01.226Z,12.23
2018-10-19T04:27:32.360Z,12.21
2018-10-19T04:28:03.457Z,12.19
2018-10-19T04:28:34.560Z,12.20
2018-10-19T04:29:05.750Z,12.21
2018-10-19T04:29:36.806Z,12.20
2018-10-19T04:30:07.911Z,12.20
2018-10-19T04:30:39.063Z,12.18
2018-10-19T04:31:10.172Z,12.17
2018-10-19T04:31:41.285Z,12.17
2018-10-19T04:32:12.394Z,12.16
2018-10-19T04:32:43.509Z,12.18
2018-10-19T04:33:14.680Z,12.19
2018-10-19T04:33:45.775Z,12.18
2018-10-19T04:34:16.883Z,12.16
2018-10-19T04:34:47.980Z,12.17
2018-10-19T04:35:19.089Z,12.15
2018-10-19T04:35:50.249Z,12.13
2018-10-19T04:36:21.354Z,12.14
2018-10-19T04:36:52.467Z,12.15
2018-10-19T04:37:23.570Z,12.16
2018-10-19T04:37:54.687Z,12.17
2018-10-19T04:38:25.789Z,12.18
2018-10-19T04:38:56.922Z,12.16
2018-10-19T04:39:28.041Z,12.16
2018-10-19T04:39:59.145Z,12.14
2018-10-19T04:40:30.266Z,12.15
2018-10-19T04:41:01.406Z,12.12
2018-10-19T04:41:34.468Z,12.10
2018-10-19T04:42:05.603Z,12.08
2018-10-19T04:42:36.562Z,12.05
2018-10-19T04:43:07.681Z,12.05
2018-10-19T04:43:38.787Z,12.05
2018-10-19T04:44:09.893Z,12.07
2018-10-19T04:44:42.294Z,12.07
2018-10-19T04:45:13.463Z,12.08
2018-10-19T04:45:44.593Z,12.10
2018-10-19T04:46:15.733Z,12.09
2018-10-19T04:46:46.855Z,12.09
2018-10-19T04:47:17.963Z,12.08
2018-10-19T04:47:49.203Z,12.08
2018-10-19T04:48:20.191Z,12.06
2018-10-19T04:48:51.291Z,12.06
2018-10-19T04:49:23.743Z,12.05
2018-10-19T04:49:54.853Z,12.06
2018-10-19T04:50:25.959Z,12.07
2018-10-19T04:50:57.124Z,12.08
2018-10-19T04:51:28.206Z,12.07
2018-10-19T04:51:59.325Z,12.04
2018-10-19T04:52:30.472Z,12.07
2018-10-19T04:53:01.595Z,12.11
2018-10-19T04:53:32.720Z,12.14
2018-10-19T04:54:03.824Z,12.15
2018-10-19T04:54:34.939Z,12.17
2018-10-19T04:55:06.067Z,12.19
2018-10-19T04:55:37.168Z,12.19
2018-10-19T04:56:08.284Z,12.20
2018-10-19T04:56:39.381Z,12.22
2018-10-19T04:57:10.603Z,12.20
2018-10-19T04:57:41.668Z,12.16
2018-10-19T04:58:12.773Z,12.14
2018-10-19T04:58:43.878Z,12.11
2018-10-19T04:59:15.102Z,12.13
2018-10-19T04:59:46.113Z,12.13
2018-10-19T05:00:17.215Z,12.13
2018-10-19T05:00:48.331Z,12.16
2018-10-19T05:01:19.439Z,12.17
2018-10-19T05:01:50.557Z,12.21
2018-10-19T05:02:21.673Z,12.22
2018-10-19T05:02:52.840Z,12.26
2018-10-19T05:03:23.958Z,12.27
2018-10-19T05:03:55.071Z,12.27
2018-10-19T05:04:26.197Z,12.27
2018-10-19T05:04:57.315Z,12.27
2018-10-19T05:05:29.380Z,12.30
2018-10-19T05:06:00.589Z,12.32
2018-10-19T05:06:31.722Z,12.33
2018-10-19T05:07:02.753Z,12.33
2018-10-19T05:07:35.350Z,12.35
2018-10-19T05:08:06.563Z,12.38
2018-10-19T05:08:37.654Z,12.42
2018-10-19T05:09:08.755Z,12.47
2018-10-19T05:09:39.884Z,12.51
2018-10-19T05:10:10.994Z,12.51
2018-10-19T05:10:42.095Z,12.54
2018-10-19T05:11:13.282Z,12.57
2018-10-19T05:11:44.331Z,12.60
2018-10-19T05:12:15.433Z,12.63
2018-10-19T05:12:46.884Z,12.65
2018-10-19T05:13:18.707Z,12.66
2018-10-19T05:13:49.825Z,12.66
2018-10-19T05:14:20.928Z,12.65
2018-10-19T05:14:53.063Z,12.61
2018-10-19T05:15:24.174Z,12.62
2018-10-19T05:15:55.289Z,12.63
2018-10-19T05:16:27.471Z,12.67
2018-10-19T05:16:58.641Z,12.70
2018-10-19T05:17:29.771Z,12.71
2018-10-19T05:18:00.891Z,12.72
2018-10-19T05:18:32.050Z,12.74
2018-10-19T05:19:03.162Z,12.78
2018-10-19T05:19:34.297Z,12.83
2018-10-19T05:20:05.422Z,12.89
2018-10-19T05:20:37.710Z,12.93
2018-10-19T05:21:09.649Z,12.97
2018-10-19T05:21:43.561Z,12.99
2018-10-19T05:22:14.688Z,13.04
2018-10-19T05:22:45.800Z,13.11
2018-10-19T05:23:16.935Z,13.16
2018-10-19T05:23:48.109Z,13.18
2018-10-19T05:24:19.446Z,13.19
2018-10-19T05:24:51.112Z,13.18
2018-10-19T05:25:23.009Z,13.19
2018-10-19T05:25:55.335Z,13.20
2018-10-19T05:26:26.743Z,13.18
2018-10-19T05:26:58.113Z,13.18
2018-10-19T05:27:29.592Z,13.18
2018-10-19T05:28:01.000Z,13.21
2018-10-19T05:28:32.481Z,13.25
2018-10-19T05:29:03.929Z,13.28
2018-10-19T05:29:35.177Z,13.34
2018-10-19T05:30:06.318Z,13.38
2018-10-19T05:30:38.022Z,13.41
2018-10-19T05:31:09.164Z,13.43
2018-10-19T05:31:40.270Z,13.46
2018-10-19T05:32:11.446Z,13.45
2018-10-19T05:32:42.522Z,13.49
2018-10-19T05:33:13.601Z,13.52
2018-10-19T05:33:44.698Z,13.52
2018-10-19T05:34:15.795Z,13.51
2018-10-19T05:34:46.939Z,13.51
2018-10-19T05:35:18.105Z,13.52
2018-10-19T05:35:49.987Z,13.55
2018-10-19T05:36:21.111Z,13.55
2018-10-19T05:36:52.220Z,13.58
2018-10-19T05:37:23.322Z,13.60
2018-10-19T05:37:54.997Z,13.59
2018-10-19T05:38:26.103Z,13.60
2018-10-19T05:38:58.071Z,13.60
2018-10-19T05:39:29.178Z,13.63
2018-10-19T05:40:00.325Z,13.66
2018-10-19T05:41:07.256Z,13.68
2018-10-19T05:41:38.373Z,13.69
2018-10-19T05:42:09.604Z,13.70
2018-10-19T05:42:40.710Z,13.62
2018-10-19T05:43:11.813Z,13.73
2018-10-19T05:43:43.073Z,13.77
2018-10-19T05:44:18.521Z,13.79
2018-10-19T05:44:50.849Z,13.82
2018-10-19T05:45:22.010Z,13.86
2018-10-19T05:45:53.102Z,13.90
2018-10-19T05:46:24.215Z,13.93
2018-10-19T05:46:56.932Z,13.99
2018-10-19T05:47:28.019Z,14.05
2018-10-19T05:47:59.147Z,14.10
2018-10-19T05:48:31.154Z,14.12
2018-10-19T05:49:02.332Z,14.14
2018-10-19T05:49:33.457Z,14.17
2018-10-19T05:50:04.595Z,14.18
2018-10-19T05:50:35.749Z,14.21
2018-10-19T05:51:06.854Z,14.25
2018-10-19T05:52:15.376Z,14.33
2018-10-19T05:52:46.426Z,14.37
2018-10-19T05:53:17.614Z,14.41
2018-10-19T05:53:48.681Z,14.45
2018-10-19T05:54:19.817Z,14.47
2018-10-19T05:54:53.394Z,14.51
2018-10-19T05:55:25.259Z,14.54
2018-10-19T05:55:56.456Z,14.56
2018-10-19T05:56:27.531Z,14.58
2018-10-19T05:56:58.646Z,14.60
2018-10-19T05:57:29.750Z,14.60
2018-10-19T05:58:00.888Z,14.63
2018-10-19T05:58:31.982Z,14.66
2018-10-19T05:59:03.128Z,14.70
2018-10-19T05:59:34.227Z,14.75
2018-10-19T06:00:05.397Z,14.79
2018-10-19T06:00:41.302Z,14.78
2018-10-19T06:01:12.424Z,14.83
2018-10-19T06:01:43.557Z,14.84
2018-10-19T06:02:15.545Z,14.77
2018-10-19T06:02:46.691Z,14.85
2018-10-19T06:03:19.146Z,14.88
2018-10-19T06:03:50.625Z,14.90
2018-10-19T06:04:22.479Z,14.93
2018-10-19T06:04:53.635Z,14.96
2018-10-19T06:05:24.747Z,14.98
2018-10-19T06:05:55.858Z,15.00
2018-10-19T06:06:27.012Z,14.99
2018-10-19T06:06:59.110Z,14.98
2018-10-19T06:07:30.221Z,15.01
2018-10-19T06:08:01.410Z,15.04
2018-10-19T06:08:32.476Z,15.07
2018-10-19T06:09:03.574Z,15.11
2018-10-19T06:09:34.674Z,15.14
2018-10-19T06:10:05.772Z,15.18
2018-10-19T06:10:36.874Z,15.21
2018-10-19T06:11:07.996Z,15.26
2018-10-19T06:11:39.865Z,15.30
2018-10-19T06:12:10.985Z,15.32
2018-10-19T06:12:42.093Z,15.31
2018-10-19T06:13:13.197Z,15.32
2018-10-19T06:13:44.352Z,15.34
2018-10-19T06:14:15.467Z,15.34
2018-10-19T06:14:46.589Z,15.35
2018-10-19T06:15:17.734Z,15.40
2018-10-19T06:15:49.140Z,15.43
2018-10-19T06:16:20.257Z,15.44
2018-10-19T06:16:51.386Z,15.50
2018-10-19T06:17:22.501Z,15.57
2018-10-19T06:17:53.597Z,15.60
2018-10-19T06:18:24.693Z,15.62
2018-10-19T06:18:55.841Z,15.67
2018-10-19T06:19:28.006Z,15.73
2018-10-19T06:19:59.118Z,15.76
2018-10-19T06:20:30.474Z,15.78
2018-10-19T06:21:01.579Z,15.85
2018-10-19T06:21:32.701Z,15.92
2018-10-19T06:22:03.795Z,15.97
2018-10-19T06:22:34.942Z,15.98
2018-10-19T06:23:06.067Z,15.97
2018-10-19T06:23:37.170Z,15.98
2018-10-19T06:24:09.257Z,15.95
2018-10-19T06:24:41.687Z,15.91
2018-10-19T06:25:12.819Z,15.81
2018-10-19T06:25:43.946Z,15.79
2018-10-19T06:26:15.071Z,15.79
2018-10-19T06:26:46.551Z,15.78
2018-10-19T06:27:17.663Z,15.72
2018-10-19T06:27:48.790Z,15.69
2018-10-19T06:28:19.899Z,15.72
2018-10-19T06:28:51.014Z,15.74
2018-10-19T06:29:22.117Z,15.71
2018-10-19T06:29:53.213Z,15.70
2018-10-19T06:30:24.313Z,15.70
2018-10-19T06:30:57.576Z,15.67
2018-10-19T06:31:29.501Z,15.69
2018-10-19T06:32:01.355Z,15.74
2018-10-19T06:32:33.233Z,15.78
2018-10-19T06:33:04.374Z,15.81
2018-10-19T06:33:35.483Z,15.83
2018-10-19T06:34:06.585Z,15.85
2018-10-19T06:34:37.702Z,15.85
2018-10-19T06:35:08.865Z,15.85
2018-10-19T06:35:39.925Z,15.87
2018-10-19T06:36:11.062Z,15.87
2018-10-19T06:36:42.198Z,15.86
2018-10-19T06:37:13.338Z,15.86
2018-10-19T06:37:44.451Z,15.86
2018-10-19T06:38:16.032Z,15.85
2018-10-19T06:38:47.119Z,15.80
2018-10-19T06:39:19.155Z,15.80
2018-10-19T06:39:51.163Z,15.82
2018-10-19T06:40:22.865Z,15.84
2018-10-19T06:40:57.100Z,15.84
2018-10-19T06:41:28.237Z,15.83
2018-10-19T06:41:59.354Z,15.82
2018-10-19T06:42:30.500Z,15.83
2018-10-19T06:43:01.694Z,15.86
2018-10-19T06:43:32.789Z,15.87
2018-10-19T06:44:03.916Z,15.88
2018-10-19T06:44:35.022Z,15.89
2018-10-19T06:45:06.123Z,15.90
2018-10-19T06:45:37.261Z,15.87
2018-10-19T06:46:09.043Z,15.87
2018-10-19T06:46:40.281Z,15.88
2018-10-19T06:47:11.388Z,15.89